Time;durP1;ratioP1;P1;durP2;ratioP2;P2;SDS_P1;SDS_P2;PMS_P1;PMS_P2;Temp;Humidity;BMP_temperature;BMP_pressure;BME280_temperature;BME280_humidity;BME280_pressure;Samples;Min_cycle;Max_cycle;Signal;HPM_P1;HPM_P2
2023/04/18 00:01:43;;;;;;;8.40;4.25;;;8.10;99.90;;;;;;5021951;28;20101;-74
2023/04/18 00:04:10;;;;;;;5.82;4.45;;;8.10;99.90;;;;;;5019088;28;20108;-74
2023/04/18 00:06:38;;;;;;;7.28;4.30;;;8.00;99.90;;;;;;5022167;28;20103;-74
2023/04/18 00:09:05;;;;;;;6.03;4.35;;;8.00;99.90;;;;;;5019069;28;20073;-74
2023/04/18 00:11:31;;;;;;;5.63;4.85;;;7.90;99.90;;;;;;5024872;28;20144;-74
2023/04/18 00:13:58;;;;;;;6.80;4.53;;;7.90;99.90;;;;;;5039072;28;20432;-74
2023/04/18 00:16:26;;;;;;;8.68;4.60;;;7.80;99.90;;;;;;5023209;28;20042;-73
2023/04/18 00:18:53;;;;;;;7.03;5.53;;;7.70;99.90;;;;;;5020131;28;20057;-74
2023/04/18 00:21:21;;;;;;;7.25;4.80;;;7.70;99.90;;;;;;5024681;28;20071;-72
2023/04/18 00:23:48;;;;;;;6.35;4.28;;;7.70;99.90;;;;;;5020921;28;20053;-74
2023/04/18 00:26:14;;;;;;;5.32;4.53;;;7.60;99.90;;;;;;5022876;28;20054;-76
2023/04/18 00:28:41;;;;;;;5.63;4.13;;;7.50;99.90;;;;;;5025734;28;20132;-74
2023/04/18 00:31:08;;;;;;;7.78;4.55;;;7.50;99.90;;;;;;5030507;28;20124;-74
2023/04/18 00:33:34;;;;;;;6.25;4.40;;;7.50;99.90;;;;;;5024918;28;20524;-74
2023/04/18 00:36:01;;;;;;;7.85;3.75;;;7.40;99.90;;;;;;5025681;28;20038;-74
2023/04/18 00:38:28;;;;;;;5.40;4.32;;;7.40;99.90;;;;;;5024892;28;20049;-74
2023/04/18 00:40:54;;;;;;;4.45;3.78;;;7.40;99.90;;;;;;5024742;28;20046;-74
2023/04/18 00:43:23;;;;;;;8.02;3.95;;;7.40;99.90;;;;;;5021418;28;20054;-74
2023/04/18 00:45:49;;;;;;;4.90;4.05;;;7.50;99.90;;;;;;5023670;28;20054;-74
2023/04/18 00:48:16;;;;;;;6.47;4.03;;;7.50;99.90;;;;;;5028504;28;20060;-74
2023/04/18 00:50:44;;;;;;;5.93;4.15;;;7.50;99.90;;;;;;5013511;28;20056;-75
2023/04/18 00:53:11;;;;;;;5.28;4.30;;;7.50;99.90;;;;;;5019588;28;20536;-74
2023/04/18 00:55:39;;;;;;;5.35;4.10;;;7.50;99.90;;;;;;5027743;28;20054;-74
2023/04/18 00:58:06;;;;;;;9.25;4.30;;;7.40;99.90;;;;;;5022132;28;20089;-74
2023/04/18 01:00:32;;;;;;;5.03;4.25;;;7.40;99.90;;;;;;5026498;28;20042;-75
2023/04/18 01:02:59;;;;;;;5.55;4.35;;;7.40;99.90;;;;;;5024771;28;20058;-74
2023/04/18 01:05:26;;;;;;;7.05;4.30;;;7.40;99.90;;;;;;5024233;28;20050;-74
2023/04/18 01:07:59;;;;;;;6.43;3.95;;;7.40;99.90;;;;;;5019387;28;20056;-71
2023/04/18 01:10:28;;;;;;;4.75;3.83;;;7.40;99.90;;;;;;5028173;28;20046;-74
2023/04/18 01:13:18;;;;;;;4.82;3.83;;;7.40;99.90;;;;;;5025301;28;20068;-73
2023/04/18 01:15:47;;;;;;;4.57;3.40;;;7.40;99.90;;;;;;5038734;28;20136;-74
2023/04/18 01:18:17;;;;;;;4.38;3.80;;;7.40;99.90;;;;;;5024835;28;20041;-74
2023/04/18 01:20:46;;;;;;;6.68;4.22;;;7.40;99.90;;;;;;5017113;28;20050;-74
2023/04/18 01:23:13;;;;;;;3.70;3.17;;;7.40;99.90;;;;;;5020137;28;20038;-74
2023/04/18 01:25:41;;;;;;;4.63;3.78;;;7.30;99.90;;;;;;5015614;28;20813;-74
2023/04/18 01:28:08;;;;;;;6.80;3.33;;;7.30;99.90;;;;;;5020046;28;20050;-74
2023/04/18 01:30:34;;;;;;;4.03;3.35;;;7.30;99.90;;;;;;5018180;28;20053;-74
2023/04/18 01:33:03;;;;;;;7.82;4.18;;;7.30;99.90;;;;;;5026830;28;20056;-74
2023/04/18 01:35:30;;;;;;;6.88;4.47;;;7.20;99.90;;;;;;5023661;28;20425;-74
2023/04/18 01:37:58;;;;;;;5.97;4.40;;;7.20;99.90;;;;;;5030873;28;20416;-75
2023/04/18 01:40:24;;;;;;;4.15;3.58;;;7.10;99.90;;;;;;5026977;28;20060;-75
2023/04/18 01:42:51;;;;;;;6.07;4.22;;;7.10;99.90;;;;;;5021788;28;20430;-74
2023/04/18 01:45:19;;;;;;;6.45;4.25;;;7.10;99.90;;;;;;5023880;28;20042;-74
2023/04/18 01:47:46;;;;;;;6.13;4.03;;;7.10;99.90;;;;;;5018601;28;20049;-74
2023/04/18 01:50:12;;;;;;;7.72;4.38;;;7.10;99.90;;;;;;5021390;28;20524;-74
2023/04/18 01:52:40;;;;;;;6.05;4.60;;;7.10;99.90;;;;;;5020198;28;20058;-74
2023/04/18 01:55:07;;;;;;;6.38;3.97;;;7.00;99.90;;;;;;5017753;28;20164;-75
2023/04/18 01:57:36;;;;;;;4.82;4.03;;;7.00;99.90;;;;;;5020116;28;20042;-74
2023/04/18 02:00:05;;;;;;;7.38;4.45;;;7.00;99.90;;;;;;5023379;28;20430;-74
2023/04/18 02:02:32;;;;;;;7.32;4.10;;;7.00;99.90;;;;;;5019780;28;20042;-74
2023/04/18 02:04:59;;;;;;;6.00;4.07;;;7.00;99.90;;;;;;5018535;28;20042;-74
2023/04/18 02:07:25;;;;;;;6.97;3.95;;;7.00;99.90;;;;;;5023763;28;20045;-74
2023/04/18 02:09:52;;;;;;;5.63;3.88;;;6.90;99.90;;;;;;5028847;28;20046;-75
2023/04/18 02:12:19;;;;;;;7.38;4.00;;;6.90;99.90;;;;;;5023206;28;20049;-74
2023/04/18 02:14:51;;;;;;;5.55;4.03;;;6.80;99.90;;;;;;5024109;28;20049;-74
2023/04/18 02:17:24;;;;;;;6.38;4.75;;;6.80;99.90;;;;;;5027944;28;20128;-73
2023/04/18 02:19:51;;;;;;;5.43;3.90;;;6.80;99.90;;;;;;5023254;28;20049;-74
2023/04/18 02:22:18;;;;;;;5.55;4.25;;;6.80;99.90;;;;;;5023593;28;20079;-74
2023/04/18 02:24:45;;;;;;;4.47;3.80;;;6.80;99.90;;;;;;5019660;28;20046;-74
2023/04/18 02:27:11;;;;;;;5.65;4.25;;;6.80;99.90;;;;;;5024912;28;20084;-74
2023/04/18 02:29:38;;;;;;;6.22;4.35;;;6.70;99.90;;;;;;5017101;28;20103;-75
2023/04/18 02:32:05;;;;;;;6.45;4.35;;;6.70;99.90;;;;;;5022073;28;20064;-74
2023/04/18 02:34:32;;;;;;;5.43;4.18;;;6.60;99.90;;;;;;5015455;28;20050;-74
2023/04/18 02:36:59;;;;;;;5.90;4.70;;;6.60;99.90;;;;;;5018249;28;20054;-75
2023/04/18 02:39:26;;;;;;;4.60;3.70;;;6.60;99.90;;;;;;5017211;28;20109;-74
2023/04/18 02:41:53;;;;;;;5.75;4.60;;;6.50;99.90;;;;;;5014904;28;20046;-74
2023/04/18 02:44:19;;;;;;;4.85;4.35;;;6.50;99.90;;;;;;5024043;28;20042;-75
2023/04/18 02:46:46;;;;;;;5.63;4.57;;;6.50;99.90;;;;;;5019906;28;20093;-74
2023/04/18 02:49:13;;;;;;;5.13;4.25;;;6.40;99.90;;;;;;5015809;28;20144;-75
2023/04/18 02:51:39;;;;;;;8.25;4.95;;;6.50;99.90;;;;;;5022277;28;20050;-74
2023/04/18 02:54:06;;;;;;;7.40;4.78;;;6.50;99.90;;;;;;5023129;28;20045;-74
2023/04/18 02:56:38;;;;;;;6.90;4.63;;;6.50;99.90;;;;;;5021564;28;20058;-74
2023/04/18 02:59:06;;;;;;;4.65;3.65;;;6.50;99.90;;;;;;5021376;28;20060;-75
2023/04/18 03:01:33;;;;;;;7.10;4.43;;;6.50;99.90;;;;;;5023978;28;20041;-74
2023/04/18 03:03:59;;;;;;;7.90;4.30;;;6.40;99.90;;;;;;5018631;28;20050;-74
2023/04/18 03:06:26;;;;;;;6.28;4.45;;;6.40;99.90;;;;;;5022711;28;20071;-74
2023/04/18 03:08:54;;;;;;;5.13;4.40;;;6.40;99.90;;;;;;5017344;28;20588;-74
2023/04/18 03:11:21;;;;;;;6.53;4.68;;;6.30;99.90;;;;;;5018946;28;20141;-74
2023/04/18 03:13:48;;;;;;;6.45;4.93;;;6.30;99.90;;;;;;5022408;28;20054;-75
2023/04/18 03:16:15;;;;;;;5.80;5.00;;;6.20;99.90;;;;;;5017802;28;20048;-74
2023/04/18 03:18:42;;;;;;;6.30;5.10;;;6.20;99.90;;;;;;5019825;28;20046;-74
2023/04/18 03:21:08;;;;;;;9.02;5.88;;;6.20;99.90;;;;;;5020067;28;20041;-74
2023/04/18 03:23:35;;;;;;;6.70;4.80;;;6.20;99.90;;;;;;5023645;28;20042;-75
2023/04/18 03:26:05;;;;;;;8.13;5.05;;;6.20;99.90;;;;;;5021387;28;20133;-74
2023/04/18 03:28:31;;;;;;;6.68;5.40;;;6.10;99.90;;;;;;5022234;28;20129;-74
2023/04/18 03:30:58;;;;;;;7.53;5.68;;;6.10;99.90;;;;;;5020365;28;20064;-75
2023/04/18 03:33:25;;;;;;;5.97;5.28;;;6.00;99.90;;;;;;5025006;28;20053;-74
2023/04/18 03:35:52;;;;;;;7.63;4.90;;;6.00;99.90;;;;;;5021889;28;20056;-74
2023/04/18 03:38:18;;;;;;;6.70;5.22;;;5.90;99.90;;;;;;5018124;28;20125;-74
2023/04/18 03:40:45;;;;;;;5.90;4.50;;;5.90;99.90;;;;;;5019586;28;20052;-75
2023/04/18 03:43:12;;;;;;;5.93;5.07;;;6.00;99.90;;;;;;5018079;28;20044;-74
2023/04/18 03:45:38;;;;;;;5.75;5.15;;;6.00;99.90;;;;;;5019553;28;20125;-74
2023/04/18 03:48:06;;;;;;;6.07;4.65;;;6.10;99.90;;;;;;5019594;28;20136;-74
2023/04/18 03:50:32;;;;;;;6.55;5.00;;;6.10;99.90;;;;;;5018274;28;20084;-74
2023/04/18 03:52:59;;;;;;;8.98;4.88;;;6.10;99.90;;;;;;5023818;28;20140;-74
2023/04/18 03:55:26;;;;;;;6.82;4.80;;;6.20;99.90;;;;;;5021537;28;20077;-74
2023/04/18 03:57:53;;;;;;;5.30;4.25;;;6.20;99.90;;;;;;5023483;28;20077;-74
2023/04/18 04:00:19;;;;;;;6.22;4.53;;;6.20;99.90;;;;;;5022944;28;20056;-74
2023/04/18 04:02:46;;;;;;;6.45;4.55;;;6.30;99.90;;;;;;5024639;28;20079;-74
2023/04/18 04:05:13;;;;;;;5.20;4.50;;;6.30;99.90;;;;;;5027307;28;20047;-74
2023/04/18 04:07:40;;;;;;;5.50;4.80;;;6.40;99.90;;;;;;5025609;28;20078;-74
2023/04/18 04:10:07;;;;;;;6.50;4.50;;;6.50;99.90;;;;;;5025985;28;20050;-74
2023/04/18 04:12:33;;;;;;;5.25;4.57;;;6.50;99.90;;;;;;5024800;28;20076;-74
2023/04/18 04:15:00;;;;;;;7.53;4.50;;;6.60;99.90;;;;;;5020327;28;20085;-74
2023/04/18 04:17:27;;;;;;;4.78;4.35;;;6.60;99.90;;;;;;5025596;28;20041;-74
2023/04/18 04:19:54;;;;;;;12.25;8.52;;;6.60;99.90;;;;;;5017986;28;20050;-74
2023/04/18 04:22:20;;;;;;;9.27;6.78;;;6.70;99.90;;;;;;5027201;28;20045;-75
2023/04/18 04:24:47;;;;;;;5.40;4.90;;;6.70;99.90;;;;;;5017979;28;20042;-75
2023/04/18 04:27:14;;;;;;;9.32;6.28;;;6.80;99.90;;;;;;5022926;28;20135;-76
2023/04/18 04:29:42;;;;;;;7.55;6.43;;;6.80;99.90;;;;;;5024187;28;20140;-75
2023/04/18 04:32:09;;;;;;;8.43;7.07;;;6.90;99.90;;;;;;5025211;28;20045;-76
2023/04/18 04:34:36;;;;;;;11.45;8.15;;;6.90;99.90;;;;;;5023869;28;20495;-75
2023/04/18 04:37:02;;;;;;;9.55;7.82;;;6.90;99.90;;;;;;5026661;28;20568;-75
2023/04/18 04:39:29;;;;;;;10.00;8.10;;;6.90;99.90;;;;;;5025564;28;20052;-75
2023/04/18 04:41:56;;;;;;;9.75;7.00;;;7.00;99.90;;;;;;5025137;28;20589;-75
2023/04/18 04:44:24;;;;;;;8.32;7.43;;;7.00;99.90;;;;;;5024962;28;20056;-76
2023/04/18 04:46:53;;;;;;;9.48;7.20;;;7.10;99.90;;;;;;5025361;28;20082;-74
2023/04/18 04:49:20;;;;;;;9.65;6.45;;;7.10;99.90;;;;;;5022436;28;20129;-74
2023/04/18 04:51:47;;;;;;;7.65;6.18;;;7.20;99.90;;;;;;5024296;28;20050;-74
2023/04/18 04:54:14;;;;;;;9.25;6.60;;;7.20;99.90;;;;;;5018740;28;20088;-74
2023/04/18 04:56:41;;;;;;;8.80;6.82;;;7.20;99.90;;;;;;5020693;28;20050;-74
2023/04/18 04:59:08;;;;;;;9.75;7.18;;;7.20;99.90;;;;;;5019031;28;20052;-74
2023/04/18 05:01:35;;;;;;;7.53;6.18;;;7.20;99.90;;;;;;5024682;28;20051;-75
2023/04/18 05:04:02;;;;;;;8.82;6.28;;;7.20;99.90;;;;;;5029834;28;20053;-74
2023/04/18 05:06:30;;;;;;;7.80;5.50;;;7.20;99.90;;;;;;5024891;28;20140;-74
2023/04/18 05:08:58;;;;;;;9.10;5.55;;;7.20;99.90;;;;;;5030336;28;20137;-74
2023/04/18 05:11:25;;;;;;;8.85;5.88;;;7.20;99.90;;;;;;5024416;28;20045;-75
2023/04/18 05:13:52;;;;;;;8.55;6.18;;;7.30;99.90;;;;;;5030387;28;20430;-74
2023/04/18 05:16:19;;;;;;;8.05;6.60;;;7.30;99.90;;;;;;5025405;28;20128;-75
2023/04/18 05:18:45;;;;;;;10.98;8.38;;;7.30;99.90;;;;;;5024463;28;20465;-75
2023/04/18 05:21:12;;;;;;;13.90;9.40;;;7.30;99.90;;;;;;5026216;28;20702;-75
2023/04/18 05:23:39;;;;;;;13.73;10.18;;;7.30;99.90;;;;;;5018275;28;20096;-73
2023/04/18 05:26:05;;;;;;;14.10;10.68;;;7.30;99.90;;;;;;5026281;28;20050;-74
2023/04/18 05:28:32;;;;;;;14.98;10.70;;;7.20;99.90;;;;;;5018406;28;20042;-74
2023/04/18 05:31:02;;;;;;;21.35;14.40;;;7.20;99.90;;;;;;5018352;28;20060;-74
2023/04/18 05:33:30;;;;;;;16.80;13.25;;;7.20;99.90;;;;;;5017744;28;20042;-75
2023/04/18 05:35:57;;;;;;;19.92;13.70;;;7.10;99.90;;;;;;5028417;28;20523;-74
2023/04/18 05:38:24;;;;;;;17.58;12.95;;;7.10;99.90;;;;;;5021256;28;20132;-75
2023/04/18 05:40:51;;;;;;;17.77;13.13;;;7.10;99.90;;;;;;5022135;28;20087;-75
2023/04/18 05:43:18;;;;;;;16.60;12.80;;;7.20;99.90;;;;;;5025200;28;20513;-74
2023/04/18 05:45:45;;;;;;;22.70;14.65;;;7.10;99.90;;;;;;5021531;28;20046;-74
2023/04/18 05:48:12;;;;;;;18.88;13.73;;;7.10;99.90;;;;;;5024842;28;20096;-74
2023/04/18 05:50:39;;;;;;;19.25;14.88;;;7.20;99.90;;;;;;5023201;28;20089;-74
2023/04/18 05:53:06;;;;;;;20.10;14.70;;;7.30;99.90;;;;;;5022530;28;20049;-74
2023/04/18 05:55:33;;;;;;;21.60;14.57;;;7.30;99.90;;;;;;5025902;28;20042;-74
2023/04/18 05:58:00;;;;;;;20.10;14.50;;;7.40;99.90;;;;;;5019790;28;20518;-73
2023/04/18 06:00:27;;;;;;;22.25;14.80;;;7.40;99.90;;;;;;5023906;28;20045;-75
2023/04/18 06:02:54;;;;;;;21.35;13.82;;;7.40;99.90;;;;;;5017961;28;20195;-74
2023/04/18 06:05:21;;;;;;;19.42;14.55;;;7.40;99.90;;;;;;5017584;28;20096;-75
2023/04/18 06:07:48;;;;;;;23.70;16.35;;;7.40;99.90;;;;;;5018923;28;20061;-74
2023/04/18 06:10:15;;;;;;;19.25;14.85;;;7.40;99.90;;;;;;5017515;28;20104;-74
2023/04/18 06:12:42;;;;;;;22.55;15.55;;;7.40;99.90;;;;;;5023038;28;20088;-75
2023/04/18 06:15:09;;;;;;;21.13;15.27;;;7.40;99.90;;;;;;5017971;28;20054;-74
2023/04/18 06:17:36;;;;;;;24.48;15.48;;;7.40;99.90;;;;;;5024204;28;20052;-74
2023/04/18 06:20:05;;;;;;;22.95;16.67;;;7.50;99.90;;;;;;5021255;28;20477;-75
2023/04/18 06:22:32;;;;;;;23.60;15.90;;;7.50;99.90;;;;;;5024599;28;20041;-75
2023/04/18 06:24:59;;;;;;;22.23;16.63;;;7.50;99.90;;;;;;5023453;28;20053;-75
2023/04/18 06:27:26;;;;;;;26.38;17.95;;;7.40;99.90;;;;;;5022378;28;20052;-75
2023/04/18 06:29:57;;;;;;;27.58;18.02;;;7.40;99.90;;;;;;5024402;28;20084;-75
2023/04/18 06:32:24;;;;;;;23.70;17.45;;;7.40;99.90;;;;;;5021419;28;20057;-75
2023/04/18 06:34:51;;;;;;;21.92;17.20;;;7.40;99.90;;;;;;5021425;28;20421;-74
2023/04/18 06:37:19;;;;;;;23.73;17.48;;;7.40;99.90;;;;;;5020458;28;20429;-75
2023/04/18 06:39:45;;;;;;;21.55;15.63;;;7.40;99.90;;;;;;5015113;28;20128;-74
2023/04/18 06:42:12;;;;;;;21.42;17.05;;;7.40;99.90;;;;;;5019147;28;20468;-74
2023/04/18 06:44:41;;;;;;;26.08;17.98;;;7.40;99.90;;;;;;5013221;28;20057;-73
2023/04/18 06:47:09;;;;;;;24.75;17.73;;;7.40;99.90;;;;;;5017791;28;20107;-75
2023/04/18 06:49:36;;;;;;;23.13;17.33;;;7.40;99.90;;;;;;5019697;28;20077;-75
2023/04/18 06:52:03;;;;;;;24.67;17.40;;;7.40;99.90;;;;;;5022662;28;20053;-74
2023/04/18 06:54:29;;;;;;;24.02;18.10;;;7.40;99.90;;;;;;5020521;28;20532;-75
2023/04/18 06:56:56;;;;;;;23.98;17.30;;;7.40;99.90;;;;;;5018976;28;20045;-75
2023/04/18 06:59:23;;;;;;;23.45;18.23;;;7.50;99.90;;;;;;5020743;28;20042;-73
2023/04/18 07:01:50;;;;;;;25.15;18.67;;;7.50;99.90;;;;;;5023236;28;20481;-74
2023/04/18 07:04:16;;;;;;;24.40;18.67;;;7.50;99.90;;;;;;5015465;28;20080;-74
2023/04/18 07:06:44;;;;;;;22.88;17.88;;;7.50;99.90;;;;;;5023899;28;20096;-75
2023/04/18 07:09:11;;;;;;;25.55;17.67;;;7.60;99.90;;;;;;5018834;28;20056;-74
2023/04/18 07:11:39;;;;;;;22.83;17.73;;;7.60;99.90;;;;;;5018771;28;20046;-74
2023/04/18 07:14:06;;;;;;;27.90;18.85;;;7.60;99.90;;;;;;5016396;28;20038;-74
2023/04/18 07:16:33;;;;;;;24.65;17.58;;;7.60;99.90;;;;;;5016898;28;20128;-75
2023/04/18 07:19:00;;;;;;;25.60;18.35;;;7.70;99.90;;;;;;5013759;28;20084;-74
2023/04/18 07:21:27;;;;;;;25.73;18.00;;;7.70;99.90;;;;;;5016038;28;20042;-74
2023/04/18 07:23:54;;;;;;;26.17;18.13;;;7.70;99.90;;;;;;5015336;28;20050;-74
2023/04/18 07:26:20;;;;;;;25.80;18.80;;;7.70;99.90;;;;;;5024707;28;20037;-75
2023/04/18 07:28:48;;;;;;;24.17;17.83;;;7.70;99.90;;;;;;5016628;28;20049;-74
2023/04/18 07:31:15;;;;;;;27.13;17.33;;;7.80;99.90;;;;;;5018556;28;20529;-74
2023/04/18 07:33:42;;;;;;;22.30;17.00;;;7.90;99.90;;;;;;5017467;28;20092;-74
2023/04/18 07:36:09;;;;;;;26.67;17.88;;;7.80;99.90;;;;;;5018834;28;20081;-75
2023/04/18 07:38:36;;;;;;;25.35;17.70;;;7.90;99.90;;;;;;5020035;28;20485;-75
2023/04/18 07:41:03;;;;;;;23.48;17.13;;;7.90;99.90;;;;;;5020412;28;20073;-74
2023/04/18 07:43:30;;;;;;;24.15;16.63;;;8.00;99.90;;;;;;5019571;28;20477;-75
2023/04/18 07:45:56;;;;;;;22.52;16.98;;;8.00;99.90;;;;;;5022839;28;20084;-75
2023/04/18 07:48:24;;;;;;;21.88;16.75;;;8.10;99.90;;;;;;5018092;28;20041;-74
2023/04/18 07:50:51;;;;;;;26.60;16.95;;;8.10;99.90;;;;;;5018348;28;20052;-75
2023/04/18 07:53:18;;;;;;;27.73;17.13;;;8.10;99.90;;;;;;5017305;28;20050;-75
2023/04/18 07:55:45;;;;;;;24.55;17.10;;;8.20;99.90;;;;;;5018211;28;20601;-75
2023/04/18 07:58:12;;;;;;;22.60;16.75;;;8.20;99.90;;;;;;5017906;28;20101;-76
2023/04/18 08:00:41;;;;;;;21.58;16.80;;;8.20;99.90;;;;;;5014672;28;20494;-76
2023/04/18 08:03:09;;;;;;;24.42;16.98;;;8.20;99.90;;;;;;5022025;28;20049;-75
2023/04/18 08:05:40;;;;;;;36.80;19.92;;;8.30;99.90;;;;;;5023091;28;20133;-75
2023/04/18 08:08:11;;;;;;;25.90;17.92;;;8.30;99.90;;;;;;5021776;28;20057;-75
2023/04/18 08:10:38;;;;;;;25.60;16.52;;;8.30;99.90;;;;;;5023244;28;20127;-76
2023/04/18 08:13:05;;;;;;;27.98;18.08;;;8.40;99.90;;;;;;5022365;28;20081;-77
2023/04/18 08:15:32;;;;;;;27.13;19.10;;;8.50;99.90;;;;;;5021141;28;20053;-75
2023/04/18 08:17:59;;;;;;;28.75;18.85;;;8.50;99.90;;;;;;5022794;28;20157;-75
2023/04/18 08:20:26;;;;;;;23.42;17.13;;;8.50;99.90;;;;;;5023715;28;20052;-74
2023/04/18 08:22:53;;;;;;;20.45;16.48;;;8.60;99.90;;;;;;5018863;28;20129;-75
2023/04/18 08:25:32;;;;;;;23.95;17.00;;;8.70;99.90;;;;;;5020285;28;20045;-75
2023/04/18 08:27:59;;;;;;;20.60;16.85;;;8.80;99.90;;;;;;5016114;28;20161;-75
2023/04/18 08:30:25;;;;;;;22.13;16.52;;;8.90;99.90;;;;;;5017807;28;20073;-75
2023/04/18 08:32:52;;;;;;;20.63;15.95;;;8.90;99.90;;;;;;5018834;28;20492;-75
2023/04/18 08:35:19;;;;;;;21.67;15.32;;;8.90;99.90;;;;;;5024271;28;20049;-75
2023/04/18 08:37:46;;;;;;;22.50;16.88;;;9.00;99.90;;;;;;5018766;28;20079;-75
2023/04/18 08:40:13;;;;;;;24.58;16.20;;;9.10;99.90;;;;;;5020345;28;20045;-75
2023/04/18 08:42:42;;;;;;;23.70;17.30;;;9.20;99.90;;;;;;5021706;28;20052;-74
2023/04/18 08:45:11;;;;;;;24.00;16.92;;;9.20;99.90;;;;;;5025056;28;20052;-75
2023/04/18 08:47:37;;;;;;;23.27;17.27;;;9.30;99.90;;;;;;5024762;28;20540;-75
2023/04/18 08:50:05;;;;;;;26.95;19.30;;;9.30;99.90;;;;;;5019975;28;20046;-74
2023/04/18 08:52:34;;;;;;;20.05;15.75;;;9.40;99.90;;;;;;5023722;28;20092;-75
2023/04/18 08:55:01;;;;;;;18.92;15.00;;;9.40;99.90;;;;;;5023517;28;20085;-75
2023/04/18 08:57:29;;;;;;;20.27;15.25;;;9.50;99.90;;;;;;5019518;28;20091;-75
2023/04/18 08:59:59;;;;;;;20.55;15.45;;;9.40;99.90;;;;;;5020941;28;20100;-75
2023/04/18 09:02:37;;;;;;;20.40;15.17;;;9.50;99.90;;;;;;5021413;28;20128;-75
2023/04/18 09:05:17;;;;;;;19.45;14.57;;;9.50;99.90;;;;;;5015249;28;20288;-76
2023/04/18 09:07:45;;;;;;;18.33;14.75;;;9.50;99.90;;;;;;5019540;28;20049;-75
2023/04/18 09:10:12;;;;;;;20.30;15.35;;;9.50;99.90;;;;;;5023468;28;20053;-76
2023/04/18 09:12:48;;;;;;;20.30;15.95;;;9.50;99.90;;;;;;5022048;28;20569;-75
2023/04/18 09:15:22;;;;;;;22.52;16.27;;;9.40;99.90;;;;;;5023895;28;20132;-76
2023/04/18 09:17:53;;;;;;;21.70;16.08;;;9.50;99.90;;;;;;5021856;28;20060;-75
2023/04/18 09:20:39;;;;;;;22.75;16.65;;;9.50;99.90;;;;;;5024910;28;20042;-75
2023/04/18 09:23:13;;;;;;;25.65;18.10;;;9.40;99.90;;;;;;5024904;28;20180;-75
2023/04/18 09:25:40;;;;;;;27.40;17.73;;;9.40;99.90;;;;;;5023859;28;20093;-75
2023/04/18 09:28:25;;;;;;;23.70;15.95;;;9.50;99.90;;;;;;5025136;28;20472;-75
2023/04/18 09:30:53;;;;;;;23.23;16.00;;;9.50;99.90;;;;;;5020652;28;20053;-74
2023/04/18 09:33:33;;;;;;;20.45;15.77;;;9.40;99.90;;;;;;5016255;28;20085;-75
2023/04/18 09:36:36;;;;;;;22.85;16.67;;;9.40;99.90;;;;;;5020310;28;20456;-75
2023/04/18 09:39:03;;;;;;;21.00;16.27;;;9.40;99.90;;;;;;4939297;29;20090;-76
2023/04/18 09:41:31;;;;;;;21.27;16.45;;;9.40;99.90;;;;;;5006020;28;20037;-75
2023/04/18 09:44:13;;;;;;;25.02;17.58;;;9.50;99.90;;;;;;5014740;28;20103;-76
2023/04/18 09:46:42;;;;;;;19.85;15.02;;;9.50;99.90;;;;;;5020932;28;20607;-75
2023/04/18 09:49:12;;;;;;;23.27;14.32;;;9.60;99.90;;;;;;5021382;28;20054;-75
2023/04/18 09:51:41;;;;;;;19.80;15.18;;;9.60;99.90;;;;;;5017637;28;20045;-75
2023/04/18 09:54:12;;;;;;;19.35;14.07;;;9.60;99.90;;;;;;5020470;28;20058;-75
2023/04/18 09:56:45;;;;;;;17.73;14.18;;;9.60;99.90;;;;;;5025086;28;20057;-75
2023/04/18 09:59:20;;;;;;;22.13;15.00;;;9.60;99.90;;;;;;5021367;28;20077;-75
2023/04/18 10:01:48;;;;;;;21.50;14.43;;;9.60;99.90;;;;;;5022346;28;20501;-74
2023/04/18 10:04:16;;;;;;;19.50;14.55;;;9.60;99.90;;;;;;5048838;23;20049;-78
2023/04/18 10:06:45;;;;;;;23.00;14.73;;;9.60;99.90;;;;;;5030991;28;20041;-78
2023/04/18 10:09:13;;;;;;;18.77;15.65;;;9.60;99.90;;;;;;5026942;28;20115;-78
2023/04/18 10:11:41;;;;;;;18.63;14.05;;;9.60;99.90;;;;;;5027419;28;20104;-77
2023/04/18 10:14:11;;;;;;;18.88;13.80;;;9.60;99.90;;;;;;5025344;28;20113;-77
2023/04/18 10:16:39;;;;;;;18.73;15.00;;;9.60;99.90;;;;;;5029361;28;20045;-78
2023/04/18 10:19:23;;;;;;;18.60;14.15;;;9.60;99.90;;;;;;5030267;28;20065;-78
2023/04/18 10:21:55;;;;;;;21.77;14.70;;;9.60;99.90;;;;;;5030834;28;20046;-77
2023/04/18 10:24:47;;;;;;;18.88;14.00;;;9.60;99.90;;;;;;5032732;28;20108;-77
2023/04/18 10:27:15;;;;;;;20.67;14.35;;;9.60;99.90;;;;;;5030496;28;20123;-78
2023/04/18 10:30:00;;;;;;;16.90;13.50;;;9.60;99.90;;;;;;5023305;28;20136;-78
2023/04/18 10:32:27;;;;;;;17.17;13.23;;;9.60;99.90;;;;;;5030953;28;20056;-78
2023/04/18 10:34:54;;;;;;;18.75;14.55;;;9.70;99.90;;;;;;5028856;28;20042;-78
2023/04/18 10:37:21;;;;;;;22.48;14.05;;;9.70;99.90;;;;;;5024907;28;20105;-78
2023/04/18 10:39:54;;;;;;;19.17;13.05;;;9.90;99.90;;;;;;5030252;28;20045;-77
2023/04/18 10:42:46;;;;;;;16.00;13.63;;;9.90;99.90;;;;;;5029902;28;20483;-78
2023/04/18 10:45:23;;;;;;;15.60;12.18;;;10.00;99.90;;;;;;5027894;28;20045;-78
2023/04/18 10:47:50;;;;;;;21.02;14.48;;;10.10;99.90;;;;;;5027604;28;20045;-76
2023/04/18 10:50:16;;;;;;;16.70;13.18;;;10.10;99.90;;;;;;5027411;28;20052;-78
2023/04/18 10:52:43;;;;;;;18.75;13.07;;;10.20;99.90;;;;;;5029369;28;20053;-78
2023/04/18 10:55:15;;;;;;;18.77;13.07;;;10.20;99.90;;;;;;5026491;28;20140;-77
2023/04/18 10:57:42;;;;;;;17.02;12.57;;;10.20;99.90;;;;;;5030285;28;20049;-77
2023/04/18 11:00:12;;;;;;;20.77;13.40;;;10.20;99.90;;;;;;5032283;28;20077;-77
2023/04/18 11:02:50;;;;;;;18.67;13.73;;;10.20;99.90;;;;;;5027612;28;20041;-78
2023/04/18 11:05:25;;;;;;;19.40;13.20;;;10.40;99.90;;;;;;5032612;28;20052;-77
2023/04/18 11:07:52;;;;;;;21.45;13.68;;;10.50;99.90;;;;;;5029381;28;20087;-78
2023/04/18 11:10:22;;;;;;;16.13;12.85;;;10.50;99.90;;;;;;5031627;28;20430;-77
2023/04/18 11:12:50;;;;;;;21.48;13.73;;;10.50;99.90;;;;;;5031535;28;20045;-78
2023/04/18 11:15:21;;;;;;;17.27;13.55;;;10.60;99.90;;;;;;5031229;28;20049;-78
2023/04/18 11:18:02;;;;;;;17.33;12.52;;;10.60;99.90;;;;;;5027162;28;20510;-79
2023/04/18 11:20:37;;;;;;;16.90;13.30;;;10.60;99.90;;;;;;5031512;28;20049;-79
2023/04/18 11:23:14;;;;;;;18.83;13.32;;;10.60;99.90;;;;;;5030923;28;20045;-78
2023/04/18 11:25:43;;;;;;;22.00;13.82;;;10.50;99.90;;;;;;5027826;28;20085;-78
2023/04/18 11:28:13;;;;;;;18.00;12.80;;;10.40;99.90;;;;;;5032104;28;20535;-78
2023/04/18 11:30:40;;;;;;;22.70;14.70;;;10.50;99.90;;;;;;5024936;28;20564;-79
2023/04/18 11:33:09;;;;;;;20.20;13.13;;;10.50;99.90;;;;;;5030585;28;20068;-77
2023/04/18 11:35:41;;;;;;;17.33;13.23;;;10.50;99.90;;;;;;5027375;28;20049;-78
2023/04/18 11:38:10;;;;;;;17.85;13.63;;;10.50;99.90;;;;;;5030460;28;20089;-78
2023/04/18 11:40:37;;;;;;;18.27;14.63;;;10.50;99.90;;;;;;5031540;28;20077;-76
2023/04/18 11:43:05;;;;;;;17.35;13.20;;;10.60;99.90;;;;;;5029897;28;20057;-77
2023/04/18 11:45:32;;;;;;;18.13;13.55;;;10.70;99.90;;;;;;5032191;28;20129;-78
2023/04/18 11:47:59;;;;;;;19.98;14.20;;;10.80;99.90;;;;;;5030365;28;20493;-77
2023/04/18 11:50:26;;;;;;;20.38;13.50;;;10.80;99.90;;;;;;5028717;28;20046;-77
2023/04/18 11:52:54;;;;;;;19.48;13.57;;;10.90;99.90;;;;;;5027914;28;20052;-77
2023/04/18 11:55:24;;;;;;;23.40;15.85;;;11.00;99.90;;;;;;5023476;28;20473;-76
2023/04/18 11:57:53;;;;;;;17.30;13.57;;;11.10;99.90;;;;;;5029096;28;20041;-76
2023/04/18 12:00:34;;;;;;;19.17;13.60;;;11.10;99.90;;;;;;5029843;28;20335;-77
2023/04/18 12:03:03;;;;;;;18.38;13.55;;;11.30;99.90;;;;;;5025249;28;20049;-77
2023/04/18 12:05:31;;;;;;;16.17;13.23;;;11.40;99.90;;;;;;5028716;28;20042;-77
2023/04/18 12:08:10;;;;;;;18.40;13.80;;;11.40;99.90;;;;;;5027994;28;20045;-76
2023/04/18 12:10:45;;;;;;;19.05;13.60;;;11.40;99.90;;;;;;5034426;28;20571;-76
2023/04/18 12:13:11;;;;;;;18.55;12.77;;;11.40;99.90;;;;;;5030678;28;20045;-77
2023/04/18 12:15:41;;;;;;;17.27;12.68;;;11.40;99.90;;;;;;5034095;28;20053;-77
2023/04/18 12:18:09;;;;;;;17.55;12.70;;;11.40;99.90;;;;;;5030881;28;20627;-77
2023/04/18 12:20:51;;;;;;;17.70;13.95;;;11.40;99.90;;;;;;5033168;28;20053;-77
2023/04/18 12:23:47;;;;;;;20.98;13.82;;;11.50;99.90;;;;;;5032485;28;20045;-77
2023/04/18 12:26:19;;;;;;;17.92;13.52;;;11.60;99.90;;;;;;5020833;28;20096;-77
2023/04/18 12:28:49;;;;;;;19.25;13.68;;;11.50;99.90;;;;;;5031422;28;20513;-77
2023/04/18 12:31:16;;;;;;;19.75;13.75;;;11.60;99.90;;;;;;5034011;28;20102;-79
2023/04/18 12:33:43;;;;;;;17.60;13.63;;;11.60;99.90;;;;;;5032523;28;20056;-77
2023/04/18 12:36:10;;;;;;;17.13;13.25;;;11.60;99.90;;;;;;5031560;28;20061;-77
2023/04/18 12:38:36;;;;;;;16.23;13.27;;;11.70;99.90;;;;;;5031417;28;20528;-77
2023/04/18 12:41:04;;;;;;;16.77;13.68;;;11.60;99.90;;;;;;5033235;28;20120;-77
2023/04/18 12:43:31;;;;;;;19.85;14.25;;;11.70;99.90;;;;;;5039863;28;20056;-77
2023/04/18 12:45:58;;;;;;;16.55;12.13;;;11.70;99.90;;;;;;5046008;28;20041;-77
2023/04/18 12:48:25;;;;;;;22.55;13.73;;;11.70;99.90;;;;;;5045521;28;20136;-77
2023/04/18 12:50:52;;;;;;;17.55;13.73;;;11.70;99.90;;;;;;5045421;28;20046;-76